BCS237 EDDP-LIMC
Flight info
| Callsign | BCS237 |
|---|---|
| Flight time | 1h 8m |
| Altitude | 34000 |
| Route | NEVKO2E/08R NEVKO Q243 BAMKI Z94 KOMIB DCT TEDGO DCT SONOM/N0479F350 DCT GERSA DCT SOSON DCT DEGAD Z424 RIXUV |
| Aircraft | B77L/H-SDE1E2E3FGHIJ2J3J4J5M1RWXY/LB1D1 |
Departure
| Time | 2026-05-07 19:20 |
|---|---|
| Airport | Leipzig/Halle Airport (EDDP) |
Arrival
| Time | 2026-05-07 20:29 |
|---|---|
| Airport | Milan Malpensa International Airport (LIMC) |
| Time | Latitude | Longitude | Altitude | Speed | Heading |
|---|---|---|---|---|---|
| 2026-05-07 18:53 | 51.40854 | 12.25004 | 469 ft | 0 kts | 266° |
| 2026-05-07 19:02 | 51.40854 | 12.25005 | 469 ft | 0 kts | 266° |
| 2026-05-07 19:03 | 51.40854 | 12.25024 | 469 ft | 3 kts | 266° |
| 2026-05-07 19:03 | 51.40855 | 12.25055 | 469 ft | 3 kts | 269° |
| 2026-05-07 19:03 | 51.40855 | 12.25087 | 469 ft | 3 kts | 281° |
| 2026-05-07 19:03 | 51.40849 | 12.25114 | 467 ft | 3 kts | 321° |
| 2026-05-07 19:04 | 51.40841 | 12.25122 | 469 ft | 1 kts | 355° |
| 2026-05-07 19:08 | 51.40843 | 12.25122 | 469 ft | 5 kts | 355° |
| 2026-05-07 19:08 | 51.40930 | 12.25110 | 469 ft | 16 kts | 354° |
| 2026-05-07 19:09 | 51.41045 | 12.25095 | 474 ft | 17 kts | 355° |
| 2026-05-07 19:09 | 51.41114 | 12.24982 | 476 ft | 17 kts | 268° |
| 2026-05-07 19:09 | 51.41103 | 12.24798 | 476 ft | 17 kts | 265° |
| 2026-05-07 19:09 | 51.41109 | 12.24616 | 476 ft | 17 kts | 305° |
| 2026-05-07 19:10 | 51.41174 | 12.24477 | 478 ft | 17 kts | 271° |
| 2026-05-07 19:10 | 51.41165 | 12.24292 | 476 ft | 17 kts | 266° |
| 2026-05-07 19:10 | 51.41157 | 12.24096 | 476 ft | 18 kts | 266° |
| 2026-05-07 19:10 | 51.41150 | 12.23902 | 473 ft | 18 kts | 266° |
| 2026-05-07 19:11 | 51.41142 | 12.23705 | 475 ft | 18 kts | 266° |
| 2026-05-07 19:11 | 51.41134 | 12.23507 | 477 ft | 18 kts | 266° |
| 2026-05-07 19:11 | 51.41124 | 12.23308 | 478 ft | 18 kts | 264° |
| 2026-05-07 19:11 | 51.41110 | 12.23063 | 475 ft | 33 kts | 265° |
| 2026-05-07 19:12 | 51.41086 | 12.22572 | 464 ft | 42 kts | 266° |
| 2026-05-07 19:12 | 51.41069 | 12.22154 | 464 ft | 36 kts | 266° |
| 2026-05-07 19:12 | 51.41054 | 12.21810 | 464 ft | 19 kts | 265° |
| 2026-05-07 19:12 | 51.41058 | 12.21702 | 464 ft | 0 kts | 289° |
| 2026-05-07 19:13 | 51.41059 | 12.21698 | 464 ft | 0 kts | 291° |
| 2026-05-07 19:15 | 51.41045 | 12.21592 | 462 ft | 22 kts | 262° |
| 2026-05-07 19:15 | 51.41027 | 12.21317 | 456 ft | 25 kts | 266° |
| 2026-05-07 19:15 | 51.41018 | 12.21071 | 451 ft | 22 kts | 266° |
| 2026-05-07 19:15 | 51.41009 | 12.20863 | 439 ft | 14 kts | 265° |
| 2026-05-07 19:16 | 51.41001 | 12.20708 | 435 ft | 8 kts | 265° |
| 2026-05-07 19:16 | 51.41001 | 12.20699 | 429 ft | 0 kts | 265° |
| 2026-05-07 19:16 | 51.41000 | 12.20694 | 444 ft | 1 kts | 265° |
| 2026-05-07 19:16 | 51.40998 | 12.20653 | 439 ft | 7 kts | 265° |
| 2026-05-07 19:17 | 51.40995 | 12.20557 | 440 ft | 10 kts | 272° |
| 2026-05-07 19:17 | 51.41018 | 12.20495 | 440 ft | 4 kts | 325° |
| 2026-05-07 19:17 | 51.41023 | 12.20491 | 440 ft | 0 kts | 332° |
| 2026-05-07 19:17 | 51.41024 | 12.20490 | 428 ft | 0 kts | 333° |
| 2026-05-07 19:18 | 51.41029 | 12.20487 | 440 ft | 3 kts | 338° |
| 2026-05-07 19:19 | 51.41087 | 12.20493 | 441 ft | 10 kts | 12° |
| 2026-05-07 19:19 | 51.41153 | 12.20523 | 439 ft | 10 kts | 33° |
| 2026-05-07 19:19 | 51.41165 | 12.20573 | 432 ft | 8 kts | 84° |
| 2026-05-07 19:19 | 51.41187 | 12.20941 | 449 ft | 70 kts | 86° |
| 2026-05-07 19:20 | 51.41239 | 12.22137 | 463 ft | 142 kts | 85° |
| 2026-05-07 19:20 | 51.41318 | 12.23979 | 627 ft | 181 kts | 85° |
| 2026-05-07 19:20 | 51.41400 | 12.25914 | 1506 ft | 170 kts | 84° |
| 2026-05-07 19:20 | 51.41470 | 12.27851 | 2046 ft | 181 kts | 90° |
| 2026-05-07 19:21 | 51.41526 | 12.29951 | 2379 ft | 202 kts | 82° |
| 2026-05-07 19:21 | 51.41716 | 12.32334 | 2663 ft | 230 kts | 82° |
| 2026-05-07 19:21 | 51.41852 | 12.34950 | 3260 ft | 240 kts | 84° |
| 2026-05-07 19:21 | 51.41982 | 12.37645 | 3963 ft | 247 kts | 84° |
| 2026-05-07 19:22 | 51.42115 | 12.40437 | 4633 ft | 255 kts | 84° |
| 2026-05-07 19:22 | 51.42254 | 12.43324 | 5392 ft | 263 kts | 84° |
| 2026-05-07 19:22 | 51.42399 | 12.46270 | 6181 ft | 268 kts | 84° |
| 2026-05-07 19:22 | 51.42504 | 12.49261 | 6957 ft | 270 kts | 93° |
| 2026-05-07 19:23 | 51.41915 | 12.52152 | 7635 ft | 280 kts | 124° |
| 2026-05-07 19:23 | 51.40480 | 12.54262 | 8447 ft | 284 kts | 152° |
| 2026-05-07 19:23 | 51.38596 | 12.55228 | 9009 ft | 284 kts | 173° |
| 2026-05-07 19:23 | 51.36639 | 12.55484 | 9080 ft | 291 kts | 176° |
| 2026-05-07 19:24 | 51.34608 | 12.55692 | 9097 ft | 293 kts | 176° |
| 2026-05-07 19:24 | 51.32582 | 12.55891 | 9089 ft | 291 kts | 176° |
| 2026-05-07 19:24 | 51.30567 | 12.56093 | 9082 ft | 288 kts | 176° |
| 2026-05-07 19:24 | 51.28561 | 12.56300 | 9090 ft | 289 kts | 176° |
| 2026-05-07 19:25 | 51.26557 | 12.56513 | 9096 ft | 289 kts | 176° |
| 2026-05-07 19:25 | 51.24549 | 12.56732 | 9099 ft | 290 kts | 176° |
| 2026-05-07 19:25 | 51.22530 | 12.56955 | 9094 ft | 290 kts | 176° |
| 2026-05-07 19:25 | 51.20542 | 12.57175 | 9086 ft | 291 kts | 176° |
| 2026-05-07 19:26 | 51.18524 | 12.57403 | 9090 ft | 291 kts | 176° |
| 2026-05-07 19:26 | 51.16509 | 12.57466 | 9067 ft | 287 kts | 190° |
| 2026-05-07 19:26 | 51.14699 | 12.56286 | 9138 ft | 283 kts | 219° |
| 2026-05-07 19:26 | 51.13404 | 12.53968 | 9760 ft | 282 kts | 239° |
| 2026-05-07 19:27 | 51.12578 | 12.51112 | 10460 ft | 288 kts | 250° |
| 2026-05-07 19:27 | 51.11884 | 12.47983 | 10774 ft | 313 kts | 251° |
| 2026-05-07 19:27 | 51.11163 | 12.44544 | 10990 ft | 341 kts | 252° |
| 2026-05-07 19:27 | 51.10386 | 12.40826 | 11355 ft | 362 kts | 252° |
| 2026-05-07 19:28 | 51.09573 | 12.36979 | 12151 ft | 370 kts | 251° |
| 2026-05-07 19:28 | 51.08743 | 12.33088 | 13138 ft | 374 kts | 251° |
| 2026-05-07 19:28 | 51.07892 | 12.29157 | 14064 ft | 378 kts | 251° |
| 2026-05-07 19:28 | 51.07026 | 12.25172 | 14930 ft | 384 kts | 251° |
| 2026-05-07 19:29 | 51.06139 | 12.21130 | 15809 ft | 390 kts | 251° |
| 2026-05-07 19:29 | 51.05251 | 12.17091 | 16677 ft | 394 kts | 251° |
| 2026-05-07 19:29 | 51.04338 | 12.12954 | 17488 ft | 399 kts | 251° |
| 2026-05-07 19:29 | 51.03412 | 12.08763 | 18272 ft | 404 kts | 251° |
| 2026-05-07 19:30 | 51.02473 | 12.04527 | 18968 ft | 408 kts | 251° |
| 2026-05-07 19:30 | 51.01521 | 12.00243 | 19272 ft | 414 kts | 251° |
| 2026-05-07 19:30 | 51.00559 | 11.95924 | 20035 ft | 417 kts | 252° |
| 2026-05-07 19:30 | 50.99584 | 11.91558 | 20768 ft | 421 kts | 252° |
| 2026-05-07 19:31 | 50.98601 | 11.87153 | 21469 ft | 425 kts | 252° |
| 2026-05-07 19:31 | 50.97600 | 11.82695 | 22169 ft | 429 kts | 252° |
| 2026-05-07 19:31 | 50.96605 | 11.78264 | 22799 ft | 434 kts | 252° |
| 2026-05-07 19:31 | 50.95586 | 11.73727 | 23430 ft | 438 kts | 252° |
| 2026-05-07 19:32 | 50.94556 | 11.69155 | 24079 ft | 442 kts | 252° |
| 2026-05-07 19:32 | 50.93515 | 11.64543 | 24675 ft | 446 kts | 252° |
| 2026-05-07 19:32 | 50.92461 | 11.59895 | 25292 ft | 449 kts | 252° |
| 2026-05-07 19:32 | 50.91399 | 11.55216 | 25869 ft | 454 kts | 252° |
| 2026-05-07 19:33 | 50.90323 | 11.50488 | 26431 ft | 457 kts | 252° |
| 2026-05-07 19:33 | 50.89239 | 11.45730 | 26970 ft | 461 kts | 252° |
| 2026-05-07 19:33 | 50.88148 | 11.40933 | 27498 ft | 464 kts | 252° |
| 2026-05-07 19:33 | 50.87057 | 11.36169 | 28013 ft | 467 kts | 251° |
| 2026-05-07 19:34 | 50.85912 | 11.31329 | 28502 ft | 471 kts | 248° |
| 2026-05-07 19:34 | 50.84281 | 11.26806 | 28936 ft | 477 kts | 234° |
| 2026-05-07 19:34 | 50.82171 | 11.22738 | 29412 ft | 479 kts | 231° |
| 2026-05-07 19:34 | 50.80022 | 11.18697 | 29848 ft | 482 kts | 232° |
| 2026-05-07 19:35 | 50.77911 | 11.14544 | 30138 ft | 485 kts | 233° |
| 2026-05-07 19:35 | 50.75838 | 11.10320 | 30093 ft | 485 kts | 234° |
| 2026-05-07 19:35 | 50.71472 | 11.02279 | 30112 ft | 483 kts | 225° |
| 2026-05-07 19:36 | 50.66220 | 10.95711 | 30117 ft | 488 kts | 215° |
| 2026-05-07 19:36 | 50.60588 | 10.89699 | 30096 ft | 488 kts | 216° |
| 2026-05-07 19:37 | 50.55017 | 10.83586 | 30093 ft | 488 kts | 216° |
| 2026-05-07 19:37 | 50.49440 | 10.77506 | 30096 ft | 488 kts | 216° |
| 2026-05-07 19:38 | 50.43849 | 10.71486 | 30090 ft | 487 kts | 216° |
| 2026-05-07 19:38 | 50.38316 | 10.65476 | 30098 ft | 487 kts | 216° |
| 2026-05-07 19:39 | 50.32743 | 10.59441 | 30091 ft | 487 kts | 216° |
| 2026-05-07 19:39 | 50.27147 | 10.53464 | 30084 ft | 486 kts | 216° |
| 2026-05-07 19:40 | 50.21678 | 10.47212 | 30421 ft | 488 kts | 223° |
| 2026-05-07 19:40 | 50.19241 | 10.43551 | 31001 ft | 483 kts | 228° |
| 2026-05-07 19:40 | 50.16942 | 10.39746 | 31647 ft | 478 kts | 228° |
| 2026-05-07 19:41 | 50.14648 | 10.36004 | 32232 ft | 475 kts | 227° |
| 2026-05-07 19:41 | 50.12372 | 10.32357 | 32647 ft | 475 kts | 227° |
| 2026-05-07 19:41 | 50.10030 | 10.28725 | 33045 ft | 476 kts | 224° |
| 2026-05-07 19:41 | 50.07446 | 10.25446 | 33071 ft | 481 kts | 217° |
| 2026-05-07 19:42 | 50.01664 | 10.20210 | 33077 ft | 479 kts | 206° |
| 2026-05-07 19:42 | 49.95577 | 10.16056 | 33075 ft | 477 kts | 205° |
| 2026-05-07 19:43 | 49.89491 | 10.11910 | 33078 ft | 478 kts | 205° |
| 2026-05-07 19:43 | 49.83448 | 10.07748 | 33079 ft | 478 kts | 205° |
| 2026-05-07 19:44 | 49.77358 | 10.03545 | 33079 ft | 479 kts | 205° |
| 2026-05-07 19:44 | 49.71265 | 9.99352 | 33082 ft | 478 kts | 206° |
| 2026-05-07 19:45 | 49.65178 | 9.95168 | 33072 ft | 479 kts | 205° |
| 2026-05-07 19:45 | 49.59077 | 9.90991 | 33076 ft | 479 kts | 205° |
| 2026-05-07 19:46 | 49.53019 | 9.86855 | 33072 ft | 479 kts | 205° |
| 2026-05-07 19:46 | 49.46922 | 9.82706 | 33077 ft | 479 kts | 205° |
| 2026-05-07 19:47 | 49.40831 | 9.78572 | 33073 ft | 478 kts | 206° |
| 2026-05-07 19:47 | 49.34755 | 9.74435 | 33073 ft | 476 kts | 206° |
| 2026-05-07 19:48 | 49.28687 | 9.70357 | 33073 ft | 476 kts | 206° |
| 2026-05-07 19:48 | 49.22661 | 9.66307 | 33075 ft | 476 kts | 206° |
| 2026-05-07 19:49 | 49.16586 | 9.62216 | 33075 ft | 477 kts | 206° |
| 2026-05-07 19:49 | 49.10500 | 9.58139 | 33071 ft | 476 kts | 206° |
| 2026-05-07 19:50 | 49.04429 | 9.54082 | 33074 ft | 476 kts | 206° |
| 2026-05-07 19:50 | 48.98362 | 9.50043 | 33077 ft | 476 kts | 206° |
| 2026-05-07 19:51 | 48.92326 | 9.46034 | 33070 ft | 476 kts | 206° |
| 2026-05-07 19:51 | 48.86256 | 9.42013 | 33073 ft | 475 kts | 206° |
| 2026-05-07 19:52 | 48.80195 | 9.38000 | 33077 ft | 475 kts | 206° |
| 2026-05-07 19:52 | 48.74127 | 9.33996 | 33070 ft | 474 kts | 206° |
| 2026-05-07 19:53 | 48.68075 | 9.30014 | 33074 ft | 474 kts | 206° |
| 2026-05-07 19:53 | 48.62053 | 9.26101 | 33073 ft | 473 kts | 204° |
| 2026-05-07 19:54 | 48.55744 | 9.23120 | 33083 ft | 476 kts | 198° |
| 2026-05-07 19:54 | 48.49371 | 9.20382 | 33075 ft | 477 kts | 199° |
| 2026-05-07 19:55 | 48.43000 | 9.17619 | 33076 ft | 475 kts | 199° |
| 2026-05-07 19:55 | 48.36646 | 9.14840 | 33072 ft | 476 kts | 199° |
| 2026-05-07 19:56 | 48.30319 | 9.12064 | 33072 ft | 476 kts | 199° |
| 2026-05-07 19:56 | 48.23951 | 9.09283 | 33065 ft | 477 kts | 199° |
| 2026-05-07 19:57 | 48.17578 | 9.06504 | 33061 ft | 477 kts | 199° |
| 2026-05-07 19:57 | 48.11195 | 9.03733 | 33067 ft | 477 kts | 199° |
| 2026-05-07 19:58 | 48.04817 | 9.00972 | 33068 ft | 477 kts | 199° |
| 2026-05-07 19:58 | 47.98482 | 8.98238 | 33049 ft | 476 kts | 199° |
| 2026-05-07 19:59 | 47.92121 | 8.95494 | 33058 ft | 474 kts | 200° |
| 2026-05-07 19:59 | 47.85778 | 8.92763 | 33059 ft | 474 kts | 200° |
| 2026-05-07 20:00 | 47.79495 | 8.90070 | 33052 ft | 472 kts | 200° |
| 2026-05-07 20:00 | 47.73230 | 8.87187 | 33053 ft | 470 kts | 202° |
| 2026-05-07 20:01 | 47.67044 | 8.84059 | 33051 ft | 469 kts | 202° |
| 2026-05-07 20:01 | 47.60847 | 8.80942 | 33050 ft | 470 kts | 202° |
| 2026-05-07 20:02 | 47.54641 | 8.77875 | 33042 ft | 470 kts | 202° |
| 2026-05-07 20:02 | 47.48436 | 8.74830 | 33050 ft | 470 kts | 202° |
| 2026-05-07 20:03 | 47.42219 | 8.71789 | 33053 ft | 470 kts | 202° |
| 2026-05-07 20:03 | 47.36001 | 8.68754 | 33048 ft | 470 kts | 202° |
| 2026-05-07 20:04 | 47.29788 | 8.65734 | 33048 ft | 469 kts | 202° |
| 2026-05-07 20:04 | 47.23616 | 8.62738 | 33042 ft | 470 kts | 202° |
| 2026-05-07 20:05 | 47.17414 | 8.59727 | 33035 ft | 469 kts | 202° |
| 2026-05-07 20:05 | 47.11029 | 8.57489 | 33042 ft | 477 kts | 191° |
| 2026-05-07 20:06 | 47.04371 | 8.57213 | 33051 ft | 482 kts | 181° |
| 2026-05-07 20:06 | 46.98766 | 8.58226 | 33050 ft | 485 kts | 176° |
| 2026-05-07 20:07 | 46.92168 | 8.59753 | 32928 ft | 481 kts | 176° |
| 2026-05-07 20:07 | 46.88859 | 8.60507 | 32658 ft | 482 kts | 176° |
| 2026-05-07 20:07 | 46.85536 | 8.61259 | 32324 ft | 485 kts | 176° |
| 2026-05-07 20:08 | 46.82198 | 8.62000 | 32020 ft | 484 kts | 176° |
| 2026-05-07 20:08 | 46.78856 | 8.62734 | 31662 ft | 485 kts | 176° |
| 2026-05-07 20:08 | 46.75500 | 8.63467 | 30849 ft | 490 kts | 176° |
| 2026-05-07 20:08 | 46.72117 | 8.64196 | 30109 ft | 488 kts | 176° |
| 2026-05-07 20:09 | 46.68776 | 8.64924 | 29404 ft | 482 kts | 176° |
| 2026-05-07 20:09 | 46.65472 | 8.65641 | 28759 ft | 477 kts | 176° |
| 2026-05-07 20:09 | 46.62204 | 8.66352 | 28090 ft | 472 kts | 176° |
| 2026-05-07 20:10 | 46.55811 | 8.67737 | 26818 ft | 463 kts | 175° |
| 2026-05-07 20:10 | 46.52634 | 8.68426 | 26195 ft | 459 kts | 175° |
| 2026-05-07 20:10 | 46.49484 | 8.69105 | 25569 ft | 455 kts | 175° |
| 2026-05-07 20:10 | 46.46367 | 8.69773 | 24955 ft | 451 kts | 175° |
| 2026-05-07 20:11 | 46.43276 | 8.70435 | 24359 ft | 447 kts | 175° |
| 2026-05-07 20:11 | 46.40210 | 8.71091 | 23731 ft | 444 kts | 174° |
| 2026-05-07 20:11 | 46.37168 | 8.71744 | 23154 ft | 440 kts | 174° |
| 2026-05-07 20:11 | 46.34147 | 8.72391 | 22539 ft | 437 kts | 174° |
| 2026-05-07 20:12 | 46.31156 | 8.73030 | 21989 ft | 433 kts | 174° |
| 2026-05-07 20:12 | 46.28183 | 8.73668 | 21400 ft | 430 kts | 174° |
| 2026-05-07 20:12 | 46.25235 | 8.74298 | 20827 ft | 426 kts | 174° |
| 2026-05-07 20:12 | 46.22319 | 8.74922 | 20260 ft | 422 kts | 174° |
| 2026-05-07 20:13 | 46.19422 | 8.75536 | 19713 ft | 419 kts | 173° |
| 2026-05-07 20:13 | 46.16546 | 8.76147 | 19143 ft | 416 kts | 173° |
| 2026-05-07 20:13 | 46.13699 | 8.76753 | 18591 ft | 412 kts | 173° |
| 2026-05-07 20:13 | 46.10877 | 8.77354 | 18043 ft | 408 kts | 173° |
| 2026-05-07 20:14 | 46.08080 | 8.77946 | 17497 ft | 405 kts | 173° |
| 2026-05-07 20:14 | 46.05329 | 8.78529 | 16946 ft | 403 kts | 173° |
| 2026-05-07 20:14 | 46.02565 | 8.79114 | 16425 ft | 400 kts | 173° |
| 2026-05-07 20:14 | 45.99816 | 8.79696 | 15878 ft | 398 kts | 173° |
| 2026-05-07 20:15 | 45.97079 | 8.80272 | 15337 ft | 397 kts | 173° |
| 2026-05-07 20:15 | 45.94354 | 8.80846 | 14808 ft | 395 kts | 173° |
| 2026-05-07 20:15 | 45.91646 | 8.81419 | 14274 ft | 392 kts | 172° |
| 2026-05-07 20:15 | 45.88947 | 8.81990 | 13730 ft | 390 kts | 172° |
| 2026-05-07 20:16 | 45.86263 | 8.82557 | 13196 ft | 389 kts | 172° |
| 2026-05-07 20:16 | 45.83589 | 8.83122 | 12655 ft | 387 kts | 172° |
| 2026-05-07 20:16 | 45.80933 | 8.83679 | 12130 ft | 385 kts | 172° |
| 2026-05-07 20:16 | 45.78314 | 8.84228 | 11947 ft | 374 kts | 172° |
| 2026-05-07 20:17 | 45.75777 | 8.84759 | 11775 ft | 363 kts | 172° |
| 2026-05-07 20:17 | 45.73309 | 8.85277 | 11608 ft | 353 kts | 172° |
| 2026-05-07 20:17 | 45.70913 | 8.85775 | 11460 ft | 344 kts | 172° |
| 2026-05-07 20:17 | 45.68572 | 8.86266 | 11315 ft | 335 kts | 172° |
| 2026-05-07 20:18 | 45.66291 | 8.86744 | 11176 ft | 326 kts | 172° |
| 2026-05-07 20:18 | 45.64073 | 8.87208 | 11039 ft | 319 kts | 172° |
| 2026-05-07 20:18 | 45.61904 | 8.87657 | 10891 ft | 311 kts | 172° |
| 2026-05-07 20:18 | 45.59781 | 8.88179 | 10695 ft | 306 kts | 169° |
| 2026-05-07 20:19 | 45.57705 | 8.88761 | 10494 ft | 300 kts | 169° |
| 2026-05-07 20:19 | 45.55767 | 8.89310 | 10255 ft | 277 kts | 169° |
| 2026-05-07 20:19 | 45.53904 | 8.89825 | 9667 ft | 268 kts | 169° |
| 2026-05-07 20:19 | 45.52132 | 8.90310 | 9301 ft | 250 kts | 169° |
| 2026-05-07 20:20 | 45.50431 | 8.90776 | 9007 ft | 255 kts | 169° |
| 2026-05-07 20:20 | 45.48651 | 8.91277 | 8544 ft | 264 kts | 170° |
| 2026-05-07 20:20 | 45.46845 | 8.91757 | 8131 ft | 263 kts | 170° |
| 2026-05-07 20:20 | 45.45064 | 8.92235 | 8008 ft | 260 kts | 169° |
| 2026-05-07 20:21 | 45.43304 | 8.92712 | 7927 ft | 255 kts | 170° |
| 2026-05-07 20:21 | 45.41566 | 8.93183 | 7640 ft | 255 kts | 170° |
| 2026-05-07 20:21 | 45.39818 | 8.93597 | 7370 ft | 254 kts | 178° |
| 2026-05-07 20:21 | 45.38124 | 8.93022 | 7297 ft | 255 kts | 212° |
| 2026-05-07 20:22 | 45.36715 | 8.91457 | 7065 ft | 262 kts | 219° |
| 2026-05-07 20:22 | 45.35309 | 8.89819 | 6670 ft | 266 kts | 219° |
| 2026-05-07 20:22 | 45.34106 | 8.87916 | 6319 ft | 257 kts | 244° |
| 2026-05-07 20:22 | 45.33732 | 8.85523 | 6205 ft | 244 kts | 272° |
| 2026-05-07 20:23 | 45.34181 | 8.83287 | 5988 ft | 234 kts | 304° |
| 2026-05-07 20:23 | 45.35367 | 8.81817 | 5743 ft | 224 kts | 335° |
| 2026-05-07 20:23 | 45.36800 | 8.81061 | 5484 ft | 218 kts | 340° |
| 2026-05-07 20:23 | 45.38214 | 8.80379 | 5163 ft | 213 kts | 342° |
| 2026-05-07 20:24 | 45.39624 | 8.79842 | 4884 ft | 208 kts | 346° |
| 2026-05-07 20:24 | 45.41035 | 8.79406 | 4639 ft | 206 kts | 348° |
| 2026-05-07 20:24 | 45.42451 | 8.79010 | 4381 ft | 207 kts | 348° |
| 2026-05-07 20:24 | 45.43865 | 8.78622 | 4139 ft | 205 kts | 348° |
| 2026-05-07 20:25 | 45.45257 | 8.78238 | 3923 ft | 204 kts | 348° |
| 2026-05-07 20:25 | 45.46648 | 8.77863 | 3719 ft | 203 kts | 349° |
| 2026-05-07 20:25 | 45.48035 | 8.77481 | 3391 ft | 200 kts | 349° |
| 2026-05-07 20:25 | 45.49386 | 8.77109 | 3121 ft | 196 kts | 349° |
| 2026-05-07 20:26 | 45.50702 | 8.76746 | 2876 ft | 190 kts | 349° |
| 2026-05-07 20:26 | 45.51991 | 8.76387 | 2619 ft | 187 kts | 349° |
| 2026-05-07 20:26 | 45.53228 | 8.76051 | 2396 ft | 176 kts | 349° |
| 2026-05-07 20:26 | 45.54392 | 8.75732 | 2144 ft | 166 kts | 349° |
| 2026-05-07 20:27 | 45.55523 | 8.75417 | 1934 ft | 162 kts | 349° |
| 2026-05-07 20:27 | 45.56587 | 8.75124 | 1728 ft | 149 kts | 349° |
| 2026-05-07 20:27 | 45.57598 | 8.74843 | 1542 ft | 148 kts | 349° |
| 2026-05-07 20:27 | 45.58610 | 8.74565 | 1343 ft | 147 kts | 349° |
| 2026-05-07 20:28 | 45.59607 | 8.74284 | 1155 ft | 146 kts | 349° |
| 2026-05-07 20:28 | 45.60591 | 8.74018 | 992 ft | 145 kts | 349° |
| 2026-05-07 20:28 | 45.61589 | 8.73744 | 804 ft | 147 kts | 349° |
| 2026-05-07 20:28 | 45.62557 | 8.73475 | 749 ft | 131 kts | 349° |
| 2026-05-07 20:29 | 45.63264 | 8.73284 | 749 ft | 78 kts | 349° |
| 2026-05-07 20:29 | 45.63633 | 8.73152 | 752 ft | 40 kts | 330° |
| 2026-05-07 20:29 | 45.63823 | 8.72893 | 756 ft | 36 kts | 306° |
| 2026-05-07 20:29 | 45.63950 | 8.72607 | 757 ft | 26 kts | 285° |
| 2026-05-07 20:30 | 45.63932 | 8.72372 | 754 ft | 24 kts | 259° |
| 2026-05-07 20:30 | 45.63913 | 8.72139 | 751 ft | 25 kts | 266° |
| 2026-05-07 20:30 | 45.63891 | 8.71896 | 755 ft | 25 kts | 242° |
| 2026-05-07 20:30 | 45.63737 | 8.71843 | 754 ft | 25 kts | 167° |
| 2026-05-07 20:31 | 45.63567 | 8.71890 | 755 ft | 25 kts | 169° |
| 2026-05-07 20:31 | 45.63379 | 8.71943 | 756 ft | 29 kts | 169° |
| 2026-05-07 20:31 | 45.63181 | 8.71995 | 756 ft | 29 kts | 169° |
| 2026-05-07 20:31 | 45.62980 | 8.72050 | 755 ft | 29 kts | 169° |
| 2026-05-07 20:32 | 45.62780 | 8.72102 | 756 ft | 29 kts | 169° |
| 2026-05-07 20:32 | 45.62571 | 8.72162 | 752 ft | 33 kts | 168° |
| 2026-05-07 20:32 | 45.62349 | 8.72224 | 756 ft | 32 kts | 169° |
| 2026-05-07 20:32 | 45.62148 | 8.72281 | 757 ft | 28 kts | 169° |
| 2026-05-07 20:33 | 45.61957 | 8.72334 | 755 ft | 28 kts | 169° |
| 2026-05-07 20:33 | 45.61765 | 8.72386 | 757 ft | 28 kts | 169° |
| 2026-05-07 20:33 | 45.61574 | 8.72439 | 753 ft | 28 kts | 169° |
| 2026-05-07 20:33 | 45.61434 | 8.72463 | 755 ft | 13 kts | 201° |
| 2026-05-07 20:34 | 45.61394 | 8.72335 | 757 ft | 18 kts | 260° |
| 2026-05-07 20:34 | 45.61358 | 8.72210 | 757 ft | 8 kts | 210° |
| 2026-05-07 20:34 | 45.61335 | 8.72203 | 757 ft | 0 kts | 182° |
| 2026-05-07 20:34 | 45.61326 | 8.72202 | 758 ft | 5 kts | 181° |
| 2026-05-07 20:35 | 45.61247 | 8.72218 | 755 ft | 16 kts | 169° |
| 2026-05-07 20:35 | 45.61146 | 8.72220 | 756 ft | 11 kts | 230° |
| 2026-05-07 20:35 | 45.61095 | 8.72142 | 758 ft | 9 kts | 200° |
| 2026-05-07 20:35 | 45.61059 | 8.72139 | 757 ft | 5 kts | 194° |
| 2026-05-07 20:36 | 45.61037 | 8.72088 | 755 ft | 9 kts | 256° |
| 2026-05-07 20:36 | 45.61029 | 8.72025 | 758 ft | 0 kts | 259° |
| 2026-05-07 20:36 | 45.61028 | 8.72016 | 758 ft | 1 kts | 259° |
| 2026-05-07 20:36 | 45.61028 | 8.72015 | 758 ft | 0 kts | 259° |